sensor_id;sensor_type;location;lat;lon;timestamp;pressure;altitude;pressure_sealevel;temperature;humidity
10348;BME280;5220;43.192;23.284;2023-02-21T00:02:08;97247.06;;;7.89;100.00
10348;BME280;5220;43.192;23.284;2023-02-21T00:04:53;97239.28;;;7.89;100.00
10348;BME280;5220;43.192;23.284;2023-02-21T00:07:37;97240.97;;;7.90;100.00
10348;BME280;5220;43.192;23.284;2023-02-21T00:10:22;97241.78;;;7.90;100.00
10348;BME280;5220;43.192;23.284;2023-02-21T00:13:07;97236.81;;;7.87;100.00
10348;BME280;5220;43.192;23.284;2023-02-21T00:15:52;97236.69;;;7.89;100.00
10348;BME280;5220;43.192;23.284;2023-02-21T00:18:37;97236.50;;;7.92;100.00
10348;BME280;5220;43.192;23.284;2023-02-21T00:21:22;97237.19;;;7.95;100.00
10348;BME280;5220;43.192;23.284;2023-02-21T00:24:07;97228.97;;;8.03;100.00
10348;BME280;5220;43.192;23.284;2023-02-21T00:26:51;97231.91;;;7.97;100.00
10348;BME280;5220;43.192;23.284;2023-02-21T00:29:37;97226.28;;;8.04;100.00
10348;BME280;5220;43.192;23.284;2023-02-21T00:32:21;97219.06;;;8.09;100.00
10348;BME280;5220;43.192;23.284;2023-02-21T00:35:05;97218.13;;;8.10;100.00
10348;BME280;5220;43.192;23.284;2023-02-21T00:37:49;97214.63;;;8.11;100.00
10348;BME280;5220;43.192;23.284;2023-02-21T00:40:34;97209.53;;;8.10;100.00
10348;BME280;5220;43.192;23.284;2023-02-21T00:43:18;97208.06;;;8.06;100.00
10348;BME280;5220;43.192;23.284;2023-02-21T00:46:03;97202.03;;;8.05;100.00
10348;BME280;5220;43.192;23.284;2023-02-21T00:48:47;97195.13;;;8.06;100.00
10348;BME280;5220;43.192;23.284;2023-02-21T00:51:32;97194.28;;;8.05;100.00
10348;BME280;5220;43.192;23.284;2023-02-21T00:54:16;97183.81;;;8.07;100.00
10348;BME280;5220;43.192;23.284;2023-02-21T00:57:00;97175.44;;;7.88;100.00
10348;BME280;5220;43.192;23.284;2023-02-21T00:59:44;97161.88;;;7.98;100.00
10348;BME280;5220;43.192;23.284;2023-02-21T01:02:29;97155.31;;;8.07;100.00
10348;BME280;5220;43.192;23.284;2023-02-21T01:05:14;97148.00;;;8.13;100.00
10348;BME280;5220;43.192;23.284;2023-02-21T01:07:57;97147.75;;;8.18;100.00
10348;BME280;5220;43.192;23.284;2023-02-21T01:10:42;97132.91;;;8.20;100.00
10348;BME280;5220;43.192;23.284;2023-02-21T01:13:26;97131.81;;;8.24;100.00
10348;BME280;5220;43.192;23.284;2023-02-21T01:16:10;97126.63;;;8.24;100.00
10348;BME280;5220;43.192;23.284;2023-02-21T01:18:55;97135.69;;;8.17;100.00
10348;BME280;5220;43.192;23.284;2023-02-21T01:21:40;97129.31;;;8.23;100.00
10348;BME280;5220;43.192;23.284;2023-02-21T01:24:24;97123.47;;;8.19;100.00
10348;BME280;5220;43.192;23.284;2023-02-21T01:27:08;97116.84;;;8.15;100.00
10348;BME280;5220;43.192;23.284;2023-02-21T01:29:52;97105.06;;;8.09;100.00
10348;BME280;5220;43.192;23.284;2023-02-21T01:32:36;97110.00;;;8.00;100.00
10348;BME280;5220;43.192;23.284;2023-02-21T01:35:21;97108.13;;;8.02;100.00
10348;BME280;5220;43.192;23.284;2023-02-21T01:38:05;97096.84;;;8.03;100.00
10348;BME280;5220;43.192;23.284;2023-02-21T01:40:49;97088.06;;;8.05;100.00
10348;BME280;5220;43.192;23.284;2023-02-21T01:43:33;97105.34;;;7.77;100.00
10348;BME280;5220;43.192;23.284;2023-02-21T01:46:19;97105.50;;;7.88;100.00
10348;BME280;5220;43.192;23.284;2023-02-21T01:49:07;97093.69;;;7.98;100.00
10348;BME280;5220;43.192;23.284;2023-02-21T01:51:54;97086.94;;;7.95;100.00
10348;BME280;5220;43.192;23.284;2023-02-21T01:54:52;97096.00;;;8.02;100.00
10348;BME280;5220;43.192;23.284;2023-02-21T01:57:38;97102.09;;;8.01;100.00
10348;BME280;5220;43.192;23.284;2023-02-21T02:00:23;97099.53;;;8.01;100.00
10348;BME280;5220;43.192;23.284;2023-02-21T02:03:09;97096.00;;;8.02;100.00
10348;BME280;5220;43.192;23.284;2023-02-21T02:05:55;97103.69;;;8.04;100.00
10348;BME280;5220;43.192;23.284;2023-02-21T02:08:42;97090.84;;;8.02;100.00
10348;BME280;5220;43.192;23.284;2023-02-21T02:14:54;97115.53;;;8.08;100.00
10348;BME280;5220;43.192;23.284;2023-02-21T02:17:35;97111.38;;;8.05;100.00
10348;BME280;5220;43.192;23.284;2023-02-21T02:20:31;97112.09;;;8.07;100.00
10348;BME280;5220;43.192;23.284;2023-02-21T02:26:38;97101.47;;;8.12;100.00
10348;BME280;5220;43.192;23.284;2023-02-21T02:29:19;97101.66;;;8.09;100.00
10348;BME280;5220;43.192;23.284;2023-02-21T02:32:05;97097.47;;;8.06;100.00
10348;BME280;5220;43.192;23.284;2023-02-21T02:34:54;97105.34;;;8.05;100.00
10348;BME280;5220;43.192;23.284;2023-02-21T02:37:29;97101.84;;;8.06;100.00
10348;BME280;5220;43.192;23.284;2023-02-21T02:40:02;97102.75;;;8.05;100.00
10348;BME280;5220;43.192;23.284;2023-02-21T02:42:39;97107.09;;;8.04;100.00
10348;BME280;5220;43.192;23.284;2023-02-21T02:45:18;97101.84;;;8.06;100.00
10348;BME280;5220;43.192;23.284;2023-02-21T02:47:51;97094.63;;;7.97;100.00
10348;BME280;5220;43.192;23.284;2023-02-21T02:50:22;97091.75;;;8.01;100.00
10348;BME280;5220;43.192;23.284;2023-02-21T02:52:50;97093.25;;;8.05;100.00
10348;BME280;5220;43.192;23.284;2023-02-21T02:55:28;97085.34;;;8.07;100.00
10348;BME280;5220;43.192;23.284;2023-02-21T02:57:57;97095.00;;;8.05;100.00
10348;BME280;5220;43.192;23.284;2023-02-21T03:00:26;97089.81;;;8.05;100.00
10348;BME280;5220;43.192;23.284;2023-02-21T03:03:02;97088.31;;;8.01;100.00
10348;BME280;5220;43.192;23.284;2023-02-21T03:05:48;97094.53;;;7.98;100.00
10348;BME280;5220;43.192;23.284;2023-02-21T03:08:23;97094.81;;;7.94;100.00
10348;BME280;5220;43.192;23.284;2023-02-21T03:10:58;97109.72;;;7.90;100.00
10348;BME280;5220;43.192;23.284;2023-02-21T03:13:33;97108.88;;;7.90;100.00
10348;BME280;5220;43.192;23.284;2023-02-21T03:16:07;97114.13;;;7.88;100.00
10348;BME280;5220;43.192;23.284;2023-02-21T03:18:40;97110.78;;;7.72;100.00
10348;BME280;5220;43.192;23.284;2023-02-21T03:21:12;97107.28;;;7.73;100.00
10348;BME280;5220;43.192;23.284;2023-02-21T03:23:42;97114.97;;;7.75;100.00
10348;BME280;5220;43.192;23.284;2023-02-21T03:26:10;97121.91;;;7.74;100.00
10348;BME280;5220;43.192;23.284;2023-02-21T03:28:39;97120.69;;;7.66;100.00
10348;BME280;5220;43.192;23.284;2023-02-21T03:31:08;97127.63;;;7.65;100.00
10348;BME280;5220;43.192;23.284;2023-02-21T03:33:35;97138.81;;;7.66;100.00
10348;BME280;5220;43.192;23.284;2023-02-21T03:36:04;97138.81;;;7.66;100.00
10348;BME280;5220;43.192;23.284;2023-02-21T03:38:33;97140.44;;;7.67;100.00
10348;BME280;5220;43.192;23.284;2023-02-21T03:40:59;97141.28;;;7.67;100.00
10348;BME280;5220;43.192;23.284;2023-02-21T03:43:26;97142.31;;;7.65;100.00
10348;BME280;5220;43.192;23.284;2023-02-21T03:45:53;97140.13;;;7.43;100.00
10348;BME280;5220;43.192;23.284;2023-02-21T03:48:19;97135.88;;;7.42;100.00
10348;BME280;5220;43.192;23.284;2023-02-21T03:50:46;97143.94;;;7.51;100.00
10348;BME280;5220;43.192;23.284;2023-02-21T03:53:13;97135.88;;;7.42;100.00
10348;BME280;5220;43.192;23.284;2023-02-21T03:55:42;97133.38;;;7.40;100.00
10348;BME280;5220;43.192;23.284;2023-02-21T03:58:08;97125.22;;;7.32;100.00
10348;BME280;5220;43.192;23.284;2023-02-21T04:00:35;97125.88;;;7.36;100.00
10348;BME280;5220;43.192;23.284;2023-02-21T04:03:02;97125.38;;;7.29;100.00
10348;BME280;5220;43.192;23.284;2023-02-21T04:05:28;97123.50;;;7.47;100.00
10348;BME280;5220;43.192;23.284;2023-02-21T04:07:55;97121.50;;;7.66;100.00
10348;BME280;5220;43.192;23.284;2023-02-21T04:10:22;97123.09;;;7.69;100.00
10348;BME280;5220;43.192;23.284;2023-02-21T04:12:50;97117.06;;;7.82;100.00
10348;BME280;5220;43.192;23.284;2023-02-21T04:15:17;97113.75;;;7.94;100.00
10348;BME280;5220;43.192;23.284;2023-02-21T04:17:43;97124.78;;;7.98;100.00
10348;BME280;5220;43.192;23.284;2023-02-21T04:20:10;97128.13;;;8.00;100.00
10348;BME280;5220;43.192;23.284;2023-02-21T04:22:37;97114.75;;;7.64;100.00
10348;BME280;5220;43.192;23.284;2023-02-21T04:25:05;97120.56;;;7.67;100.00
10348;BME280;5220;43.192;23.284;2023-02-21T04:27:32;97112.81;;;7.67;100.00
10348;BME280;5220;43.192;23.284;2023-02-21T04:30:00;97109.66;;;7.62;100.00
10348;BME280;5220;43.192;23.284;2023-02-21T04:32:27;97106.00;;;7.36;100.00
10348;BME280;5220;43.192;23.284;2023-02-21T04:34:53;97100.09;;;7.34;100.00
10348;BME280;5220;43.192;23.284;2023-02-21T04:37:21;97106.19;;;7.33;100.00
10348;BME280;5220;43.192;23.284;2023-02-21T04:39:48;97094.75;;;7.37;100.00
10348;BME280;5220;43.192;23.284;2023-02-21T04:42:14;97099.91;;;7.37;100.00
10348;BME280;5220;43.192;23.284;2023-02-21T04:44:41;97100.41;;;7.44;100.00
10348;BME280;5220;43.192;23.284;2023-02-21T04:47:09;97096.22;;;7.41;100.00
10348;BME280;5220;43.192;23.284;2023-02-21T04:49:36;97096.22;;;7.41;100.00
10348;BME280;5220;43.192;23.284;2023-02-21T04:52:03;97091.56;;;7.32;100.00
10348;BME280;5220;43.192;23.284;2023-02-21T04:54:30;97103.25;;;7.39;100.00
10348;BME280;5220;43.192;23.284;2023-02-21T04:56:56;97095.47;;;7.39;100.00
10348;BME280;5220;43.192;23.284;2023-02-21T04:59:23;97097.41;;;7.06;100.00
10348;BME280;5220;43.192;23.284;2023-02-21T05:01:50;97100.38;;;7.14;100.00
10348;BME280;5220;43.192;23.284;2023-02-21T05:04:18;97097.06;;;7.12;100.00
10348;BME280;5220;43.192;23.284;2023-02-21T05:06:45;97109.06;;;7.13;100.00
10348;BME280;5220;43.192;23.284;2023-02-21T05:09:11;97099.06;;;7.07;100.00
10348;BME280;5220;43.192;23.284;2023-02-21T05:11:38;97100.75;;;7.08;100.00
10348;BME280;5220;43.192;23.284;2023-02-21T05:14:05;97105.00;;;7.09;100.00
10348;BME280;5220;43.192;23.284;2023-02-21T05:16:32;97106.94;;;7.06;100.00
10348;BME280;5220;43.192;23.284;2023-02-21T05:18:59;97108.19;;;6.98;100.00
10348;BME280;5220;43.192;23.284;2023-02-21T05:21:28;97102.63;;;6.90;100.00
10348;BME280;5220;43.192;23.284;2023-02-21T05:23:55;97098.28;;;6.91;100.00
10348;BME280;5220;43.192;23.284;2023-02-21T05:26:23;97095.00;;;7.03;100.00
10348;BME280;5220;43.192;23.284;2023-02-21T05:28:50;97098.44;;;7.03;100.00
10348;BME280;5220;43.192;23.284;2023-02-21T05:31:18;97099.72;;;7.11;100.00
10348;BME280;5220;43.192;23.284;2023-02-21T05:33:46;97094.38;;;7.14;100.00
10348;BME280;5220;43.192;23.284;2023-02-21T05:36:12;97105.50;;;7.16;100.00
10348;BME280;5220;43.192;23.284;2023-02-21T05:38:49;97097.56;;;7.19;100.00
10348;BME280;5220;43.192;23.284;2023-02-21T05:41:17;97104.19;;;7.23;100.00
10348;BME280;5220;43.192;23.284;2023-02-21T05:43:44;97108.38;;;7.25;100.00
10348;BME280;5220;43.192;23.284;2023-02-21T05:46:21;97106.00;;;7.07;100.00
10348;BME280;5220;43.192;23.284;2023-02-21T05:48:48;97099.31;;;7.32;100.00
10348;BME280;5220;43.192;23.284;2023-02-21T05:51:15;97108.16;;;7.44;100.00
10348;BME280;5220;43.192;23.284;2023-02-21T05:53:43;97107.81;;;7.50;100.00
10348;BME280;5220;43.192;23.284;2023-02-21T05:56:11;97095.22;;;7.58;100.00
10348;BME280;5220;43.192;23.284;2023-02-21T05:58:39;97095.16;;;7.60;100.00
10348;BME280;5220;43.192;23.284;2023-02-21T06:01:06;97086.09;;;7.67;100.00
10348;BME280;5220;43.192;23.284;2023-02-21T06:03:33;97099.31;;;7.62;100.00
10348;BME280;5220;43.192;23.284;2023-02-21T06:06:00;97095.81;;;7.77;100.00
10348;BME280;5220;43.192;23.284;2023-02-21T06:08:26;97095.63;;;7.80;100.00
10348;BME280;5220;43.192;23.284;2023-02-21T06:10:53;97092.50;;;7.89;100.00
10348;BME280;5220;43.192;23.284;2023-02-21T06:13:21;97093.88;;;7.95;100.00
10348;BME280;5220;43.192;23.284;2023-02-21T06:15:48;97089.50;;;8.09;100.00
10348;BME280;5220;43.192;23.284;2023-02-21T06:18:16;97088.03;;;8.20;100.00
10348;BME280;5220;43.192;23.284;2023-02-21T06:20:43;97084.34;;;8.24;98.07
10348;BME280;5220;43.192;23.284;2023-02-21T06:23:09;97081.66;;;8.39;100.00
10348;BME280;5220;43.192;23.284;2023-02-21T06:25:36;97081.00;;;8.50;99.74
10348;BME280;5220;43.192;23.284;2023-02-21T06:28:03;97094.19;;;8.59;95.81
10348;BME280;5220;43.192;23.284;2023-02-21T06:30:31;97074.22;;;8.61;94.14
10348;BME280;5220;43.192;23.284;2023-02-21T06:32:58;97087.91;;;8.63;88.28
10348;BME280;5220;43.192;23.284;2023-02-21T06:35:25;97083.66;;;8.89;80.57
10348;BME280;5220;43.192;23.284;2023-02-21T06:37:51;97077.59;;;9.15;77.87
10348;BME280;5220;43.192;23.284;2023-02-21T06:40:18;97073.59;;;9.37;74.70
10348;BME280;5220;43.192;23.284;2023-02-21T06:42:45;97082.44;;;9.59;72.75
10348;BME280;5220;43.192;23.284;2023-02-21T06:45:12;97072.28;;;9.82;68.28
10348;BME280;5220;43.192;23.284;2023-02-21T06:47:40;97069.78;;;10.05;66.05
10348;BME280;5220;43.192;23.284;2023-02-21T06:50:07;97072.56;;;10.27;67.18
10348;BME280;5220;43.192;23.284;2023-02-21T06:52:34;97077.44;;;10.45;68.79
10348;BME280;5220;43.192;23.284;2023-02-21T06:55:00;97072.84;;;10.48;64.12
10348;BME280;5220;43.192;23.284;2023-02-21T06:57:27;97074.13;;;10.66;66.86
10348;BME280;5220;43.192;23.284;2023-02-21T06:59:54;97074.94;;;10.79;61.14
10348;BME280;5220;43.192;23.284;2023-02-21T07:02:20;97064.84;;;10.99;68.06
10348;BME280;5220;43.192;23.284;2023-02-21T07:04:49;97063.72;;;11.14;71.90
10348;BME280;5220;43.192;23.284;2023-02-21T07:07:16;97064.34;;;11.28;76.53
10348;BME280;5220;43.192;23.284;2023-02-21T07:09:42;97056.00;;;11.47;71.30
10348;BME280;5220;43.192;23.284;2023-02-21T07:12:09;97056.63;;;11.62;76.51
10348;BME280;5220;43.192;23.284;2023-02-21T07:14:36;97040.69;;;11.77;75.73
10348;BME280;5220;43.192;23.284;2023-02-21T07:17:02;97032.41;;;11.83;74.55
10348;BME280;5220;43.192;23.284;2023-02-21T07:19:29;97033.94;;;11.97;85.87
10348;BME280;5220;43.192;23.284;2023-02-21T07:21:57;97025.56;;;12.05;94.54
10348;BME280;5220;43.192;23.284;2023-02-21T07:24:24;97033.00;;;12.09;89.57
10348;BME280;5220;43.192;23.284;2023-02-21T07:26:51;97030.84;;;12.14;89.00
10348;BME280;5220;43.192;23.284;2023-02-21T07:29:17;97029.06;;;12.15;69.89
10348;BME280;5220;43.192;23.284;2023-02-21T07:31:44;97016.28;;;12.23;61.09
10348;BME280;5220;43.192;23.284;2023-02-21T07:34:11;97028.38;;;12.35;81.62
10348;BME280;5220;43.192;23.284;2023-02-21T07:36:39;97017.53;;;12.39;93.76
10348;BME280;5220;43.192;23.284;2023-02-21T07:39:07;97014.59;;;12.44;94.86
10348;BME280;5220;43.192;23.284;2023-02-21T07:41:34;97019.00;;;12.32;94.39
10348;BME280;5220;43.192;23.284;2023-02-21T07:44:01;97011.72;;;12.47;98.20
10348;BME280;5220;43.192;23.284;2023-02-21T07:46:28;97009.31;;;12.55;93.15
10348;BME280;5220;43.192;23.284;2023-02-21T07:48:55;97007.06;;;12.62;90.55
10348;BME280;5220;43.192;23.284;2023-02-21T07:51:22;97005.13;;;12.75;95.51
10348;BME280;5220;43.192;23.284;2023-02-21T07:53:48;97010.44;;;12.84;95.74
10348;BME280;5220;43.192;23.284;2023-02-21T07:56:16;96999.56;;;13.00;100.00
10348;BME280;5220;43.192;23.284;2023-02-21T07:58:43;97006.56;;;13.11;100.00
10348;BME280;5220;43.192;23.284;2023-02-21T08:01:10;97007.13;;;13.14;97.12
10348;BME280;5220;43.192;23.284;2023-02-21T08:03:37;96994.53;;;13.19;82.75
10348;BME280;5220;43.192;23.284;2023-02-21T08:06:05;96995.97;;;13.33;79.82
10348;BME280;5220;43.192;23.284;2023-02-21T08:08:33;96995.09;;;13.43;72.25
10348;BME280;5220;43.192;23.284;2023-02-21T08:11:00;96985.06;;;13.69;80.18
10348;BME280;5220;43.192;23.284;2023-02-21T08:13:28;96980.41;;;13.82;64.85
10348;BME280;5220;43.192;23.284;2023-02-21T08:15:55;96983.31;;;14.10;70.01
10348;BME280;5220;43.192;23.284;2023-02-21T08:18:22;96977.88;;;14.32;69.72
10348;BME280;5220;43.192;23.284;2023-02-21T08:20:49;96978.91;;;14.50;63.44
10348;BME280;5220;43.192;23.284;2023-02-21T08:23:16;96972.59;;;14.91;82.23
10348;BME280;5220;43.192;23.284;2023-02-21T08:25:43;96978.63;;;15.01;57.05
10348;BME280;5220;43.192;23.284;2023-02-21T08:28:11;96973.25;;;15.22;57.43
10348;BME280;5220;43.192;23.284;2023-02-21T08:30:39;96985.78;;;15.37;54.00
10348;BME280;5220;43.192;23.284;2023-02-21T08:33:05;96973.06;;;15.42;48.59
10348;BME280;5220;43.192;23.284;2023-02-21T08:35:32;96974.03;;;15.60;49.76
10348;BME280;5220;43.192;23.284;2023-02-21T08:37:59;96983.81;;;15.68;48.80
10348;BME280;5220;43.192;23.284;2023-02-21T08:40:28;96981.31;;;15.67;44.57
10348;BME280;5220;43.192;23.284;2023-02-21T08:42:55;96981.84;;;15.80;45.54
10348;BME280;5220;43.192;23.284;2023-02-21T08:45:24;96980.66;;;16.01;44.54
10348;BME280;5220;43.192;23.284;2023-02-21T08:47:55;96981.63;;;16.28;44.03
10348;BME280;5220;43.192;23.284;2023-02-21T08:50:23;96982.34;;;16.47;46.66
10348;BME280;5220;43.192;23.284;2023-02-21T08:52:51;96974.28;;;16.58;46.01
10348;BME280;5220;43.192;23.284;2023-02-21T08:55:19;96984.56;;;16.70;44.20
10348;BME280;5220;43.192;23.284;2023-02-21T08:57:47;96987.06;;;16.71;38.98
10348;BME280;5220;43.192;23.284;2023-02-21T09:00:14;96986.47;;;16.95;39.93
10348;BME280;5220;43.192;23.284;2023-02-21T09:02:41;96987.13;;;16.97;37.35
10348;BME280;5220;43.192;23.284;2023-02-21T09:05:12;96980.63;;;17.18;37.27
10348;BME280;5220;43.192;23.284;2023-02-21T09:07:40;96974.06;;;17.23;34.96
10348;BME280;5220;43.192;23.284;2023-02-21T09:10:09;96990.88;;;17.30;36.25
10348;BME280;5220;43.192;23.284;2023-02-21T09:12:36;96992.69;;;17.29;36.38
10348;BME280;5220;43.192;23.284;2023-02-21T09:15:05;96977.47;;;17.41;35.66
10348;BME280;5220;43.192;23.284;2023-02-21T09:17:32;96970.81;;;17.46;33.51
10348;BME280;5220;43.192;23.284;2023-02-21T09:20:00;96988.16;;;17.39;33.41
10348;BME280;5220;43.192;23.284;2023-02-21T09:22:28;96992.63;;;17.47;32.81
10348;BME280;5220;43.192;23.284;2023-02-21T09:24:56;96986.22;;;17.59;33.32
10348;BME280;5220;43.192;23.284;2023-02-21T09:27:22;96983.94;;;17.64;32.23
10348;BME280;5220;43.192;23.284;2023-02-21T09:30:02;96997.75;;;17.66;32.21
10348;BME280;5220;43.192;23.284;2023-02-21T09:32:28;96986.16;;;17.77;31.60
10348;BME280;5220;43.192;23.284;2023-02-21T09:34:56;96985.97;;;17.78;31.28
10348;BME280;5220;43.192;23.284;2023-02-21T09:37:23;96988.34;;;17.89;31.54
10348;BME280;5220;43.192;23.284;2023-02-21T09:39:51;96978.88;;;18.04;31.68
10348;BME280;5220;43.192;23.284;2023-02-21T09:42:18;96970.25;;;18.20;30.95
10348;BME280;5220;43.192;23.284;2023-02-21T09:44:47;96972.88;;;18.20;30.95
10348;BME280;5220;43.192;23.284;2023-02-21T09:47:26;96970.63;;;18.41;31.72
10348;BME280;5220;43.192;23.284;2023-02-21T09:49:59;96967.69;;;18.44;30.95
10348;BME280;5220;43.192;23.284;2023-02-21T09:52:31;96967.84;;;18.43;31.34
10348;BME280;5220;43.192;23.284;2023-02-21T09:55:04;96968.72;;;18.51;30.27
10348;BME280;5220;43.192;23.284;2023-02-21T09:57:34;96973.69;;;18.62;30.32
10348;BME280;5220;43.192;23.284;2023-02-21T10:00:10;96969.59;;;18.68;30.08
10348;BME280;5220;43.192;23.284;2023-02-21T10:02:53;96966.97;;;18.84;29.68
10348;BME280;5220;43.192;23.284;2023-02-21T10:05:29;96964.19;;;18.86;29.27
10348;BME280;5220;43.192;23.284;2023-02-21T10:08:05;96956.44;;;18.84;28.48
10348;BME280;5220;43.192;23.284;2023-02-21T10:10:42;96955.97;;;18.89;28.99
10348;BME280;5220;43.192;23.284;2023-02-21T10:13:22;96959.59;;;18.96;29.01
10348;BME280;5220;43.192;23.284;2023-02-21T10:15:59;96944.91;;;18.93;28.92
10348;BME280;5220;43.192;23.284;2023-02-21T10:18:34;96935.38;;;19.08;29.07
10348;BME280;5220;43.192;23.284;2023-02-21T10:21:11;96929.59;;;19.21;29.69
10348;BME280;5220;43.192;23.284;2023-02-21T10:23:44;96930.09;;;19.41;28.82
10348;BME280;5220;43.192;23.284;2023-02-21T10:26:17;96947.41;;;19.51;28.21
10348;BME280;5220;43.192;23.284;2023-02-21T10:28:45;96930.44;;;19.46;27.38
10348;BME280;5220;43.192;23.284;2023-02-21T10:31:18;96940.63;;;19.57;28.40
10348;BME280;5220;43.192;23.284;2023-02-21T10:33:47;96932.75;;;19.49;28.45
10348;BME280;5220;43.192;23.284;2023-02-21T10:36:16;96924.97;;;19.47;28.64
10348;BME280;5220;43.192;23.284;2023-02-21T10:38:51;96924.50;;;19.52;28.46
10348;BME280;5220;43.192;23.284;2023-02-21T10:41:21;96925.09;;;19.62;28.76
10348;BME280;5220;43.192;23.284;2023-02-21T10:43:51;96932.69;;;19.65;27.73
10348;BME280;5220;43.192;23.284;2023-02-21T10:46:23;96922.78;;;19.67;28.04
10348;BME280;5220;43.192;23.284;2023-02-21T10:48:52;96917.00;;;19.79;27.79
10348;BME280;5220;43.192;23.284;2023-02-21T10:51:28;96916.13;;;19.87;27.54
10348;BME280;5220;43.192;23.284;2023-02-21T10:54:16;96907.56;;;19.85;26.84
10348;BME280;5220;43.192;23.284;2023-02-21T10:56:46;96908.50;;;20.00;27.41
10348;BME280;5220;43.192;23.284;2023-02-21T10:59:20;96905.22;;;19.98;27.15
10348;BME280;5220;43.192;23.284;2023-02-21T11:01:48;96893.06;;;20.12;27.34
10348;BME280;5220;43.192;23.284;2023-02-21T11:04:24;96900.28;;;19.87;28.86
10348;BME280;5220;43.192;23.284;2023-02-21T11:06:54;96900.34;;;19.71;26.61
10348;BME280;5220;43.192;23.284;2023-02-21T11:09:35;96893.09;;;19.73;27.17
10348;BME280;5220;43.192;23.284;2023-02-21T11:12:15;96893.28;;;19.63;27.95
10348;BME280;5220;43.192;23.284;2023-02-21T11:14:43;96896.59;;;19.49;27.84
10348;BME280;5220;43.192;23.284;2023-02-21T11:17:16;96886.34;;;19.70;36.87
10348;BME280;5220;43.192;23.284;2023-02-21T11:19:50;96877.06;;;19.74;28.64
10348;BME280;5220;43.192;23.284;2023-02-21T11:22:19;96880.72;;;19.65;28.62
10348;BME280;5220;43.192;23.284;2023-02-21T11:24:57;96868.78;;;19.77;27.17
10348;BME280;5220;43.192;23.284;2023-02-21T11:27:28;96857.56;;;19.83;26.00
10348;BME280;5220;43.192;23.284;2023-02-21T11:29:55;96865.03;;;19.80;27.39
10348;BME280;5220;43.192;23.284;2023-02-21T11:32:26;96863.19;;;19.80;27.26
10348;BME280;5220;43.192;23.284;2023-02-21T11:35:20;96854.13;;;19.83;26.75
10348;BME280;5220;43.192;23.284;2023-02-21T11:37:49;96852.41;;;19.90;27.74
10348;BME280;5220;43.192;23.284;2023-02-21T11:40:26;96847.75;;;20.00;27.08
10348;BME280;5220;43.192;23.284;2023-02-21T11:43:15;96850.19;;;20.10;26.65
10348;BME280;5220;43.192;23.284;2023-02-21T11:45:52;96857.75;;;20.13;26.31
10348;BME280;5220;43.192;23.284;2023-02-21T11:48:26;96853.09;;;20.23;26.67
10348;BME280;5220;43.192;23.284;2023-02-21T11:50:57;96842.31;;;20.32;25.77
10348;BME280;5220;43.192;23.284;2023-02-21T11:53:29;96839.97;;;20.37;26.83
10348;BME280;5220;43.192;23.284;2023-02-21T11:56:04;96837.19;;;20.31;26.21
10348;BME280;5220;43.192;23.284;2023-02-21T11:58:40;96841.31;;;20.33;26.04
10348;BME280;5220;43.192;23.284;2023-02-21T12:01:13;96831.75;;;20.32;25.40
10348;BME280;5220;43.192;23.284;2023-02-21T12:04:02;96829.31;;;20.46;26.64
10348;BME280;5220;43.192;23.284;2023-02-21T12:06:35;96814.72;;;20.58;26.05
10348;BME280;5220;43.192;23.284;2023-02-21T12:09:09;96820.66;;;20.60;25.91
10348;BME280;5220;43.192;23.284;2023-02-21T12:11:45;96820.88;;;20.73;26.25
10348;BME280;5220;43.192;23.284;2023-02-21T12:14:39;96818.59;;;20.70;26.11
10348;BME280;5220;43.192;23.284;2023-02-21T12:17:26;96819.50;;;20.77;25.70
10348;BME280;5220;43.192;23.284;2023-02-21T12:20:05;96813.00;;;20.65;26.04
10348;BME280;5220;43.192;23.284;2023-02-21T12:22:50;96809.28;;;20.74;26.49
10348;BME280;5220;43.192;23.284;2023-02-21T12:25:24;96813.47;;;20.68;25.88
10348;BME280;5220;43.192;23.284;2023-02-21T12:28:02;96809.84;;;20.69;25.70
10348;BME280;5220;43.192;23.284;2023-02-21T12:30:43;96805.13;;;20.79;25.38
10348;BME280;5220;43.192;23.284;2023-02-21T12:33:25;96804.34;;;20.71;25.85
10348;BME280;5220;43.192;23.284;2023-02-21T12:39:04;96795.66;;;20.85;25.16
10348;BME280;5220;43.192;23.284;2023-02-21T12:44:40;96780.16;;;20.82;25.82
10348;BME280;5220;43.192;23.284;2023-02-21T12:47:18;96784.78;;;20.80;25.21
10348;BME280;5220;43.192;23.284;2023-02-21T12:49:51;96779.78;;;20.85;25.04
10348;BME280;5220;43.192;23.284;2023-02-21T12:52:25;96783.66;;;20.60;25.67
10348;BME280;5220;43.192;23.284;2023-02-21T12:54:59;96780.44;;;20.64;24.85
10348;BME280;5220;43.192;23.284;2023-02-21T12:57:31;96782.75;;;20.67;25.94
10348;BME280;5220;43.192;23.284;2023-02-21T13:00:05;96778.03;;;20.77;25.08
10348;BME280;5220;43.192;23.284;2023-02-21T13:02:51;96779.44;;;20.88;26.68
10348;BME280;5220;43.192;23.284;2023-02-21T13:05:30;96774.66;;;20.83;25.05
10348;BME280;5220;43.192;23.284;2023-02-21T13:08:01;96765.03;;;20.53;25.46
10348;BME280;5220;43.192;23.284;2023-02-21T13:10:35;96765.63;;;20.41;25.47
10348;BME280;5220;43.192;23.284;2023-02-21T13:13:10;96763.53;;;20.36;25.45
10348;BME280;5220;43.192;23.284;2023-02-21T13:15:39;96767.00;;;20.06;25.97
10348;BME280;5220;43.192;23.284;2023-02-21T13:21:36;96758.38;;;20.12;26.66
10348;BME280;5220;43.192;23.284;2023-02-21T13:24:12;96760.09;;;20.27;26.13
10348;BME280;5220;43.192;23.284;2023-02-21T13:26:51;96759.88;;;20.37;26.31
10348;BME280;5220;43.192;23.284;2023-02-21T13:29:24;96761.88;;;20.58;25.59
10348;BME280;5220;43.192;23.284;2023-02-21T13:31:58;96759.38;;;20.56;25.02
10348;BME280;5220;43.192;23.284;2023-02-21T13:34:28;96759.22;;;20.58;25.18
10348;BME280;5220;43.192;23.284;2023-02-21T13:37:01;96759.50;;;20.63;24.88
10348;BME280;5220;43.192;23.284;2023-02-21T13:39:33;96766.13;;;20.59;26.15
10348;BME280;5220;43.192;23.284;2023-02-21T13:42:05;96755.25;;;20.76;25.20
10348;BME280;5220;43.192;23.284;2023-02-21T13:44:34;96753.97;;;20.87;26.38
10348;BME280;5220;43.192;23.284;2023-02-21T13:47:12;96760.06;;;20.73;26.64